• Join FlightAware (Why Join?)
  • Login
  • US Flag 
01:25AM EDT


 

Airport Tracker/Info


-or-


 

Live Flight TrackerFlight Track Log ✈ AFR1048 ✈ 13-Apr-2013 ✈ LFPG / CDG - LEBL / BCN

Flight Track Log - Related Links

Times and Time Zones

All times are in EDT time to prevent confusion due to time zone crossing. See the AFR1048 flight status page for this flight to view local times or setup timezone preferences in your user account.

Time Position Orientation Groundspeed Altitude Reporting Facility
EDT Latitude Longitude Course Direction KTS MPH feet Rate Location/Type
11:03AM 48.0102 2.4810 183° South  Level Estimated
11:04AM 47.9330 2.4758 183° South  Level Estimated
11:05AM 47.8559 2.4706 183° South  Level Estimated
11:06AM 47.7788 2.4654 183° South  Level Estimated
11:07AM 47.7016 2.4603 183° South  Level Estimated
11:08AM 47.6245 2.4551 183° South  Level Estimated
11:09AM 47.5474 2.4500 183° South  Level Estimated
11:10AM 47.4703 2.4449 183° South  Level Estimated
11:11AM 47.3931 2.4398 183° South  Level Estimated
11:12AM 47.3160 2.4347 183° South  Level Estimated
11:13AM 47.2389 2.4297 183° South  Level Estimated
11:14AM 47.1617 2.4246 183° South  Level Estimated
11:15AM 47.0846 2.4196 183° South  Level Estimated
11:16AM 47.0075 2.4146 183° South  Level Estimated
11:17AM 46.9304 2.4096 183° South  Level Estimated
11:18AM 46.8532 2.4046 183° South  Level Estimated
11:19AM 46.7761 2.3996 183° South  Level Estimated
11:20AM 46.6990 2.3947 183° South  Level Estimated
11:21AM 46.6218 2.3897 183° South  Level Estimated
11:22AM 46.5447 2.3848 183° South  Level Estimated
11:23AM 46.4676 2.3799 183° South  Level Estimated
11:24AM 46.3799 2.3743 183° South  Level Estimated
11:25AM 46.2923 2.3687 183° South  Level Estimated
11:26AM 46.2046 2.3632 183° South  Level Estimated
11:27AM 46.1170 2.3577 182° South  Level Estimated
11:28AM 46.0293 2.3522 182° South  Level Estimated
11:29AM 45.9417 2.3467 182° South  Level Estimated
11:30AM 45.8540 2.3412 182° South  Level Estimated
11:31AM 45.7664 2.3358 182° South  Level Estimated
11:32AM 45.6787 2.3303 182° South  Level Estimated
11:33AM 45.5911 2.3249 182° South  Level Estimated
11:34AM 45.5034 2.3195 182° South  Level Estimated
11:35AM 45.4158 2.3142 182° South  Level Estimated
11:36AM 45.3281 2.3088 182° South  Level Estimated
11:37AM 45.2405 2.3034 182° South  Level Estimated
11:38AM 45.1528 2.2981 182° South  Level Estimated
11:39AM 45.0652 2.2928 182° South  Level Estimated
11:40AM 44.9775 2.2875 182° South  Level Estimated
11:41AM 44.8899 2.2822 182° South  Level Estimated
11:42AM 44.8022 2.2769 182° South  Level Estimated
11:43AM 44.7146 2.2717 182° South  Level Estimated
11:44AM 44.6269 2.2664 182° South  Level Estimated
11:45AM 44.5393 2.2612 182° South  Level Estimated
11:46AM 44.4516 2.2560 182° South  Level Estimated
11:47AM 44.3640 2.2508 182° South  Level Estimated
11:48AM 44.2763 2.2457 182° South  Level Estimated
11:49AM 44.1887 2.2405 182° South  Level Estimated
11:50AM 44.1010 2.2354 182° South  Level Estimated
11:51AM 44.0134 2.2302 182° South  Level Estimated
11:52AM 43.9257 2.2251 182° South  Level Estimated
11:53AM 43.8381 2.2200 182° South  Level Estimated
11:54AM 43.7428 2.2145 182° South  Level Estimated
11:55AM 43.6476 2.2090 182° South  Level Estimated
11:56AM 43.5524 2.2035 182° South  Level Estimated
11:57AM 43.4571 2.1981 182° South  Level Estimated
11:58AM 43.3619 2.1926 182° South  Level Estimated
11:59AM 43.2667 2.1872 182° South  Level Estimated
12:00PM 43.1715 2.1818 182° South  Level Estimated
12:01PM 43.0762 2.1764 182° South  Level Estimated
12:02PM 42.9810 2.1710 182° South  Level Estimated
12:03PM 42.8858 2.1656 182° South  Level Estimated
12:04PM 42.7905 2.1603 182° South  Level Estimated
12:05PM 42.6953 2.1549 182° South  Level Estimated
12:06PM 42.6001 2.1496 182° South  Level Estimated
12:07PM 42.5048 2.1443 182° South  Level Estimated
12:08PM 42.4096 2.1390 182° South  Level Estimated
12:09PM 42.3144 2.1338 182° South  Level Estimated
12:10PM 42.2192 2.1285 182° South  Level Estimated
12:11PM 42.1239 2.1233 182° South  Level Estimated
12:12PM 42.0287 2.1181 182° South  Level Estimated
12:13PM 41.9335 2.1128 182° South  Level Estimated
12:14PM 41.8382 2.1077 182° South  Level Estimated
12:15PM 41.7430 2.1025 182° South  Level Estimated
12:16PM 41.6477 2.0973 182° South  Level Estimated
12:17PM 41.5525 2.0922 182° South  Level Estimated
12:18PM 41.4573 2.0871 182° South  Level Estimated
12:19PM 41.3608 2.0819 182° South  Level Estimated
12:20PM 41.2971 2.0785 182° South  Level Estimated
12:21PM 41.2971 2.0785 124° Southeast  Level Estimated
12:22PM 41.2971 2.0785 124° Southeast  Level Estimated
12:23PM 41.2971 2.0785 124° Southeast  Level Estimated